Time;durP1;ratioP1;P1;durP2;ratioP2;P2;SDS_P1;SDS_P2;PMS_P1;PMS_P2;Temp;Humidity;BMP_temperature;BMP_pressure;BME280_temperature;BME280_humidity;BME280_pressure;Samples;Min_cycle;Max_cycle;Signal;HPM_P1;HPM_P2
2022/05/04 00:01:48;;;;;;;3.60;3.30;;;;;;;;;;5074898;28;21115;-65
2022/05/04 00:04:15;;;;;;;3.60;3.30;;;;;;;;;;5085320;28;20240;-65
2022/05/04 00:06:43;;;;;;;4.50;3.90;;;;;;;;;;5083061;28;20315;-65
2022/05/04 00:09:11;;;;;;;5.80;3.90;;;;;;;;;;5061728;28;20216;-65
2022/05/04 00:11:40;;;;;;;4.20;3.70;;;;;;;;;;5094013;28;20200;-65
2022/05/04 00:14:07;;;;;;;3.77;3.47;;;;;;;;;;5066058;28;20209;-65
2022/05/04 00:16:35;;;;;;;4.93;4.43;;;;;;;;;;5067636;28;20587;-64
2022/05/04 00:19:02;;;;;;;3.37;3.10;;;;;;;;;;5058086;28;20209;-65
2022/05/04 00:21:29;;;;;;;3.80;3.50;;;;;;;;;;5041248;28;20233;-65
2022/05/04 00:23:56;;;;;;;4.57;4.17;;;;;;;;;;5043917;28;20299;-65
2022/05/04 00:26:24;;;;;;;4.63;4.13;;;;;;;;;;5049080;28;20236;-65
2022/05/04 00:28:51;;;;;;;6.10;4.50;;;;;;;;;;5048751;28;20217;-65
2022/05/04 00:31:19;;;;;;;5.47;4.13;;;;;;;;;;5042559;28;20247;-64
2022/05/04 00:33:46;;;;;;;3.90;3.60;;;;;;;;;;5047629;28;20259;-64
2022/05/04 00:36:14;;;;;;;3.57;3.27;;;;;;;;;;5061613;28;20208;-64
2022/05/04 00:38:41;;;;;;;3.90;3.60;;;;;;;;;;5043105;28;20214;-65
2022/05/04 00:41:09;;;;;;;4.63;3.50;;;;;;;;;;5067568;28;20220;-65
2022/05/04 00:43:36;;;;;;;4.17;3.73;;;;;;;;;;5061549;28;20219;-65
2022/05/04 00:46:04;;;;;;;4.13;3.63;;;;;;;;;;5052919;28;20262;-64
2022/05/04 00:48:31;;;;;;;4.27;3.87;;;;;;;;;;5044138;28;20204;-63
2022/05/04 00:50:59;;;;;;;4.20;3.37;;;;;;;;;;5061411;28;20722;-65
2022/05/04 00:53:26;;;;;;;4.07;3.67;;;;;;;;;;5066829;28;20621;-65
2022/05/04 00:55:54;;;;;;;4.00;3.60;;;;;;;;;;5062202;28;20208;-65
2022/05/04 01:01:08;;;;;;;3.60;3.30;;;;;;;;;;5077009;28;20217;-65
2022/05/04 01:03:37;;;;;;;3.50;3.20;;;;;;;;;;5081196;28;20261;-65
2022/05/04 01:06:04;;;;;;;3.87;3.47;;;;;;;;;;5059834;28;20219;-65
2022/05/04 01:08:31;;;;;;;4.33;3.37;;;;;;;;;;5062471;28;20719;-65
2022/05/04 01:10:59;;;;;;;4.00;3.63;;;;;;;;;;5061632;28;20204;-64
2022/05/04 01:13:26;;;;;;;4.33;3.60;;;;;;;;;;5060984;28;20671;-65
2022/05/04 01:15:54;;;;;;;3.53;3.23;;;;;;;;;;5062233;28;20204;-65
2022/05/04 01:18:22;;;;;;;3.53;3.23;;;;;;;;;;5072510;28;20201;-65
2022/05/04 01:20:49;;;;;;;4.20;3.53;;;;;;;;;;5081903;28;20229;-66
2022/05/04 01:23:17;;;;;;;3.73;3.27;;;;;;;;;;5048909;28;20262;-66
2022/05/04 01:25:45;;;;;;;4.00;3.60;;;;;;;;;;5042070;28;20205;-66
2022/05/04 01:28:12;;;;;;;3.40;3.10;;;;;;;;;;5044424;28;20894;-63
2022/05/04 01:30:39;;;;;;;3.40;3.10;;;;;;;;;;5044167;28;20209;-65
2022/05/04 01:33:07;;;;;;;3.80;3.50;;;;;;;;;;5043594;28;20210;-65
2022/05/04 01:35:34;;;;;;;3.60;3.30;;;;;;;;;;5039021;28;20262;-65
2022/05/04 01:38:02;;;;;;;3.67;3.37;;;;;;;;;;5041301;28;20238;-65
2022/05/04 01:40:29;;;;;;;3.30;3.00;;;;;;;;;;5040960;28;20232;-65
2022/05/04 01:42:56;;;;;;;4.03;3.33;;;;;;;;;;5062047;28;20563;-65
2022/05/04 01:45:24;;;;;;;3.53;3.23;;;;;;;;;;5060934;28;22046;-64
2022/05/04 01:47:51;;;;;;;8.20;6.83;;;;;;;;;;5050266;28;20240;-64
2022/05/04 01:50:18;;;;;;;5.00;4.50;;;;;;;;;;5057005;28;20222;-64
2022/05/04 01:52:46;;;;;;;3.93;3.63;;;;;;;;;;5044412;28;20219;-65
2022/05/04 01:55:15;;;;;;;5.70;3.73;;;;;;;;;;5053787;28;20201;-65
2022/05/04 01:57:42;;;;;;;4.40;4.00;;;;;;;;;;5068343;28;20273;-65
2022/05/04 02:00:10;;;;;;;9.90;8.07;;;;;;;;;;5051438;28;20732;-64
2022/05/04 02:02:37;;;;;;;10.60;9.20;;;;;;;;;;5043273;28;20689;-64
2022/05/04 02:05:05;;;;;;;10.90;8.83;;;;;;;;;;5042058;28;20208;-64
2022/05/04 02:07:37;;;;;;;7.60;6.73;;;;;;;;;;5040108;28;22098;-65
2022/05/04 02:10:05;;;;;;;8.17;7.10;;;;;;;;;;5041458;28;20216;-65
2022/05/04 02:12:34;;;;;;;6.97;6.03;;;;;;;;;;5045263;28;20209;-64
2022/05/04 02:15:03;;;;;;;6.80;6.10;;;;;;;;;;5038478;28;20820;-64
2022/05/04 02:17:30;;;;;;;6.90;6.20;;;;;;;;;;5039931;28;20233;-64
2022/05/04 02:19:58;;;;;;;6.77;5.80;;;;;;;;;;5042071;28;20212;-65
2022/05/04 02:22:25;;;;;;;5.00;4.60;;;;;;;;;;5041799;28;20213;-64
2022/05/04 02:24:53;;;;;;;5.13;4.63;;;;;;;;;;5038358;28;20291;-64
2022/05/04 02:27:20;;;;;;;6.10;4.30;;;;;;;;;;5041347;28;20314;-65
2022/05/04 02:29:48;;;;;;;4.60;4.20;;;;;;;;;;5048902;28;20201;-64
2022/05/04 02:32:16;;;;;;;9.17;6.73;;;;;;;;;;5041312;28;20630;-64
2022/05/04 02:40:16;;;;;;;5.60;5.10;;;;;;;;;;5060211;28;21468;-65
2022/05/04 02:42:43;;;;;;;6.23;5.63;;;;;;;;;;5047385;28;20232;-65
2022/05/04 02:45:11;;;;;;;8.17;6.77;;;;;;;;;;5050475;28;20694;-65
2022/05/04 02:47:39;;;;;;;9.50;7.53;;;;;;;;;;5039675;28;22082;-64
2022/05/04 02:50:13;;;;;;;10.40;7.17;;;;;;;;;;5048739;28;20747;-65
2022/05/04 02:52:41;;;;;;;10.83;7.73;;;;;;;;;;5085813;28;20221;-64
2022/05/04 02:55:09;;;;;;;8.90;7.23;;;;;;;;;;5064746;28;20213;-65
2022/05/04 02:57:36;;;;;;;6.60;5.90;;;;;;;;;;5064810;28;20232;-64
2022/05/04 03:00:04;;;;;;;6.97;6.03;;;;;;;;;;5066701;28;20213;-64
2022/05/04 03:02:31;;;;;;;6.90;6.20;;;;;;;;;;5068603;28;20246;-65
2022/05/04 03:05:00;;;;;;;6.03;5.37;;;;;;;;;;5067192;28;20197;-64
2022/05/04 03:07:28;;;;;;;5.70;5.10;;;;;;;;;;5068544;28;20763;-64
2022/05/04 03:09:56;;;;;;;5.63;5.03;;;;;;;;;;5064624;28;20216;-65
2022/05/04 03:12:24;;;;;;;6.23;4.90;;;;;;;;;;5066919;28;20242;-64
2022/05/04 03:14:52;;;;;;;5.90;4.40;;;;;;;;;;5064460;28;20205;-64
2022/05/04 03:17:19;;;;;;;4.97;4.43;;;;;;;;;;5066052;28;20709;-65
2022/05/04 03:19:47;;;;;;;5.20;4.37;;;;;;;;;;5064688;28;20673;-64
2022/05/04 03:22:16;;;;;;;6.23;4.67;;;;;;;;;;5050748;28;20227;-64
2022/05/04 03:24:44;;;;;;;5.57;4.63;;;;;;;;;;5059161;28;20204;-65
2022/05/04 03:27:11;;;;;;;4.80;4.30;;;;;;;;;;5059784;28;20225;-64
2022/05/04 03:29:38;;;;;;;5.40;4.90;;;;;;;;;;5063068;28;21449;-64
2022/05/04 03:32:06;;;;;;;7.17;6.03;;;;;;;;;;5046908;28;20285;-64
2022/05/04 03:34:34;;;;;;;6.53;5.53;;;;;;;;;;5045803;28;20234;-64
2022/05/04 03:37:02;;;;;;;4.90;4.50;;;;;;;;;;5047792;28;20331;-65
2022/05/04 03:39:29;;;;;;;4.90;4.50;;;;;;;;;;5040947;28;20212;-64
2022/05/04 03:41:57;;;;;;;5.00;4.60;;;;;;;;;;5043258;28;20229;-64
2022/05/04 03:44:24;;;;;;;4.80;4.40;;;;;;;;;;5049537;28;20738;-64
2022/05/04 03:46:52;;;;;;;4.30;4.00;;;;;;;;;;5042765;28;21024;-64
2022/05/04 03:49:22;;;;;;;4.43;3.80;;;;;;;;;;5059607;28;20331;-64
2022/05/04 03:51:49;;;;;;;4.57;3.93;;;;;;;;;;5049717;28;21494;-65
2022/05/04 03:54:17;;;;;;;5.50;4.07;;;;;;;;;;5046749;28;20205;-64
2022/05/04 03:56:44;;;;;;;4.37;4.00;;;;;;;;;;5038038;28;20237;-64
2022/05/04 03:59:12;;;;;;;4.50;4.10;;;;;;;;;;5045262;28;20216;-64
2022/05/04 04:01:40;;;;;;;6.07;5.27;;;;;;;;;;5040151;28;20240;-63
2022/05/04 04:04:07;;;;;;;11.37;7.80;;;;;;;;;;5049228;28;20219;-64
2022/05/04 04:06:35;;;;;;;4.53;4.13;;;;;;;;;;5042554;28;20224;-65
2022/05/04 04:09:03;;;;;;;10.43;4.10;;;;;;;;;;5045411;28;20246;-65
2022/05/04 04:11:31;;;;;;;5.13;4.63;;;;;;;;;;5062270;28;20258;-65
2022/05/04 04:13:58;;;;;;;6.20;5.43;;;;;;;;;;5051275;28;20586;-65
2022/05/04 04:16:26;;;;;;;9.43;6.77;;;;;;;;;;5050507;28;20245;-65
2022/05/04 04:18:54;;;;;;;9.57;7.43;;;;;;;;;;5059527;28;20281;-64
2022/05/04 04:24:08;;;;;;;13.97;9.60;;;;;;;;;;5061083;28;20751;-65
2022/05/04 04:26:38;;;;;;;14.90;9.50;;;;;;;;;;5037703;28;20327;-62
2022/05/04 04:29:06;;;;;;;12.50;9.70;;;;;;;;;;5032193;28;20209;-64
2022/05/04 04:31:34;;;;;;;11.93;9.63;;;;;;;;;;5039866;28;20576;-64
2022/05/04 04:34:01;;;;;;;8.40;6.87;;;;;;;;;;5039665;28;20816;-63
2022/05/04 04:36:29;;;;;;;7.00;4.80;;;;;;;;;;5044698;28;20224;-64
2022/05/04 04:38:56;;;;;;;5.87;3.83;;;;;;;;;;5047735;28;20227;-63
2022/05/04 04:41:24;;;;;;;4.23;3.90;;;;;;;;;;5040356;28;20228;-63
2022/05/04 04:43:51;;;;;;;6.97;4.40;;;;;;;;;;5050136;28;20337;-64
2022/05/04 04:46:19;;;;;;;7.90;4.10;;;;;;;;;;5062101;28;20233;-64
2022/05/04 04:48:46;;;;;;;5.53;3.97;;;;;;;;;;5063836;28;20232;-64
2022/05/04 04:51:14;;;;;;;4.50;3.90;;;;;;;;;;5066143;28;20281;-63
2022/05/04 04:53:41;;;;;;;5.23;4.33;;;;;;;;;;5062872;28;20736;-63
2022/05/04 04:56:08;;;;;;;4.50;3.60;;;;;;;;;;5063364;28;20259;-64
2022/05/04 04:58:36;;;;;;;6.73;4.43;;;;;;;;;;5071140;28;20271;-65
2022/05/04 05:01:03;;;;;;;4.90;4.30;;;;;;;;;;5053855;28;20221;-62
2022/05/04 05:03:30;;;;;;;6.53;4.10;;;;;;;;;;5064939;28;20355;-65
2022/05/04 05:05:58;;;;;;;4.30;3.90;;;;;;;;;;5063863;28;20194;-63
2022/05/04 05:08:25;;;;;;;4.37;4.07;;;;;;;;;;5075471;28;20209;-64
2022/05/04 05:10:52;;;;;;;7.00;4.17;;;;;;;;;;5061144;28;20205;-63
2022/05/04 05:13:20;;;;;;;5.40;4.27;;;;;;;;;;5061235;28;20504;-65
2022/05/04 05:18:34;;;;;;;6.80;4.30;;;;;;;;;;5079525;28;20205;-65
2022/05/04 05:21:01;;;;;;;7.40;4.60;;;;;;;;;;5064320;28;20228;-64
2022/05/04 05:23:29;;;;;;;5.33;4.30;;;;;;;;;;5063522;28;20262;-64
2022/05/04 05:25:56;;;;;;;5.20;4.00;;;;;;;;;;5058639;28;20197;-64
2022/05/04 05:28:23;;;;;;;4.40;4.00;;;;;;;;;;5062068;28;20204;-64
2022/05/04 05:30:51;;;;;;;5.80;3.43;;;;;;;;;;5060662;28;20216;-64
2022/05/04 05:33:18;;;;;;;3.50;3.20;;;;;;;;;;5046775;28;20501;-64
2022/05/04 05:35:46;;;;;;;7.83;4.17;;;;;;;;;;5062620;28;20554;-64
2022/05/04 05:38:13;;;;;;;5.03;4.00;;;;;;;;;;5062455;28;20232;-64
2022/05/04 05:40:41;;;;;;;4.10;3.80;;;;;;;;;;5060978;28;20212;-64
2022/05/04 05:43:09;;;;;;;3.45;3.08;;;;;;;;;;5059702;28;20204;-65
2022/05/04 05:45:36;;;;;;;3.33;2.78;;;;;;;;;;5063910;28;20200;-64
2022/05/04 05:48:04;;;;;;;4.55;2.97;;;;;;;;;;5063596;28;20624;-65
2022/05/04 05:50:34;;;;;;;3.00;2.70;;;;;;;;;;5055032;28;20204;-64
2022/05/04 05:53:02;;;;;;;2.97;2.50;;;;;;;;;;5060363;28;20639;-65
2022/05/04 05:55:30;;;;;;;4.35;2.22;;;;;;;;;;5060266;28;20598;-65
2022/05/04 05:57:59;;;;;;;3.97;2.47;;;;;;;;;;5057801;28;20243;-64
2022/05/04 06:00:26;;;;;;;3.35;2.38;;;;;;;;;;5059556;28;20348;-64
2022/05/04 06:02:54;;;;;;;2.75;2.20;;;;;;;;;;5062856;28;20568;-63
2022/05/04 06:05:21;;;;;;;3.90;2.53;;;;;;;;;;5064040;28;20201;-63
2022/05/04 06:07:49;;;;;;;3.38;2.58;;;;;;;;;;5078232;28;20416;-63
2022/05/04 06:10:16;;;;;;;4.85;2.65;;;;;;;;;;5063787;28;20204;-64
2022/05/04 06:12:44;;;;;;;3.08;2.35;;;;;;;;;;5055123;28;20675;-63
2022/05/04 06:15:11;;;;;;;2.53;2.33;;;;;;;;;;5055994;28;20718;-65
2022/05/04 06:17:39;;;;;;;4.20;3.05;;;;;;;;;;5057048;28;20309;-64
2022/05/04 06:20:07;;;;;;;9.55;7.78;;;;;;;;;;5056065;28;20765;-63
2022/05/04 06:22:34;;;;;;;14.52;10.45;;;;;;;;;;5054488;28;20213;-64
2022/05/04 06:25:02;;;;;;;8.35;6.43;;;;;;;;;;5058218;28;20209;-64
2022/05/04 06:27:30;;;;;;;3.05;2.85;;;;;;;;;;5065079;28;20221;-63
2022/05/04 06:35:30;;;;;;;2.78;2.58;;;;;;;;;;5080479;28;20217;-64
2022/05/04 06:37:58;;;;;;;2.60;2.40;;;;;;;;;;5063813;28;20576;-65
2022/05/04 06:40:25;;;;;;;2.85;2.65;;;;;;;;;;5065165;28;20575;-64
2022/05/04 06:42:53;;;;;;;2.83;2.63;;;;;;;;;;5061365;28;20246;-64
2022/05/04 06:45:21;;;;;;;3.03;2.72;;;;;;;;;;5084315;28;20628;-63
2022/05/04 06:47:48;;;;;;;3.88;2.90;;;;;;;;;;5062157;28;20229;-64
2022/05/04 06:50:17;;;;;;;3.10;2.80;;;;;;;;;;5064863;28;20612;-65
2022/05/04 06:52:44;;;;;;;3.17;2.88;;;;;;;;;;5061112;28;20209;-64
2022/05/04 06:55:12;;;;;;;2.72;2.55;;;;;;;;;;5058870;28;20202;-65
2022/05/04 06:57:39;;;;;;;3.08;2.75;;;;;;;;;;5056383;28;20306;-65
2022/05/04 07:00:07;;;;;;;3.47;2.83;;;;;;;;;;5055676;28;20765;-64
2022/05/04 07:02:35;;;;;;;3.30;3.00;;;;;;;;;;5048526;28;20232;-65
2022/05/04 07:05:03;;;;;;;3.45;3.15;;;;;;;;;;5045591;28;20204;-64
2022/05/04 07:07:31;;;;;;;3.83;3.53;;;;;;;;;;5044512;28;20229;-65
2022/05/04 07:09:58;;;;;;;3.40;3.15;;;;;;;;;;5054463;28;20812;-65
2022/05/04 07:12:26;;;;;;;3.50;3.20;;;;;;;;;;5055336;28;20258;-65
2022/05/04 07:14:56;;;;;;;4.13;3.30;;;;;;;;;;5054265;28;20583;-65
2022/05/04 07:17:23;;;;;;;3.85;3.45;;;;;;;;;;5062358;28;20637;-65
2022/05/04 07:19:51;;;;;;;4.60;3.25;;;;;;;;;;5059335;28;20287;-64
2022/05/04 07:22:21;;;;;;;4.80;3.72;;;;;;;;;;5075345;28;20623;-64
2022/05/04 07:24:48;;;;;;;4.18;3.80;;;;;;;;;;5071524;28;20225;-65
2022/05/04 07:27:16;;;;;;;4.82;3.95;;;;;;;;;;5040418;28;20220;-66
2022/05/04 07:29:44;;;;;;;4.90;3.80;;;;;;;;;;5051680;28;20205;-65
2022/05/04 07:32:12;;;;;;;3.55;3.35;;;;;;;;;;5053528;28;20209;-65
2022/05/04 07:34:43;;;;;;;4.18;3.70;;;;;;;;;;5059857;28;20205;-66
2022/05/04 07:37:10;;;;;;;3.67;3.28;;;;;;;;;;5052884;28;20637;-63
2022/05/04 07:42:24;;;;;;;4.75;3.03;;;;;;;;;;5067761;28;20627;-66
2022/05/04 07:44:57;;;;;;;4.53;3.55;;;;;;;;;;5058147;28;20344;-66
2022/05/04 07:47:29;;;;;;;4.38;3.38;;;;;;;;;;5056795;28;20229;-66
2022/05/04 07:49:57;;;;;;;3.70;3.40;;;;;;;;;;5051912;28;20205;-65
2022/05/04 07:52:24;;;;;;;4.30;3.85;;;;;;;;;;5058066;28;20225;-65
2022/05/04 07:54:52;;;;;;;3.67;3.08;;;;;;;;;;5058901;28;20368;-65
2022/05/04 07:57:21;;;;;;;3.58;3.22;;;;;;;;;;5061640;28;20355;-65
2022/05/04 08:05:23;;;;;;;3.65;3.45;;;;;;;;;;5064986;28;20240;-66
2022/05/04 08:07:50;;;;;;;2.90;2.70;;;;;;;;;;5062980;28;20212;-65
2022/05/04 08:10:18;;;;;;;3.35;3.05;;;;;;;;;;5062322;28;20216;-65
2022/05/04 08:12:45;;;;;;;2.90;2.70;;;;;;;;;;5056226;28;20205;-65
2022/05/04 08:15:14;;;;;;;3.20;2.90;;;;;;;;;;5049545;28;20250;-65
2022/05/04 08:17:41;;;;;;;3.08;2.83;;;;;;;;;;5052054;28;20228;-66
2022/05/04 08:20:09;;;;;;;4.38;3.83;;;;;;;;;;5053483;28;20546;-65
2022/05/04 08:22:37;;;;;;;3.00;2.72;;;;;;;;;;5051213;28;20229;-66
2022/05/04 08:25:04;;;;;;;3.28;3.00;;;;;;;;;;5073655;28;20270;-65
2022/05/04 08:27:32;;;;;;;3.40;3.10;;;;;;;;;;5055089;28;20217;-66
2022/05/04 08:30:00;;;;;;;4.38;3.60;;;;;;;;;;5052716;28;20294;-66
2022/05/04 08:32:29;;;;;;;2.90;2.70;;;;;;;;;;5052548;28;21414;-66
2022/05/04 08:34:57;;;;;;;3.33;2.85;;;;;;;;;;5068123;28;20204;-65
2022/05/04 08:37:27;;;;;;;2.90;2.70;;;;;;;;;;5065185;28;20930;-65
2022/05/04 08:39:55;;;;;;;3.55;2.60;;;;;;;;;;5060533;28;20240;-65
2022/05/04 08:42:22;;;;;;;3.30;3.10;;;;;;;;;;5056207;28;20263;-65
2022/05/04 08:44:55;;;;;;;3.72;3.00;;;;;;;;;;5053788;28;20208;-65
2022/05/04 08:47:23;;;;;;;4.07;2.95;;;;;;;;;;5053542;28;20221;-65
2022/05/04 08:49:52;;;;;;;2.85;2.65;;;;;;;;;;5072762;28;20421;-65
2022/05/04 08:52:21;;;;;;;2.92;2.72;;;;;;;;;;5060053;28;20674;-65
2022/05/04 08:54:49;;;;;;;3.20;2.92;;;;;;;;;;5059966;28;20658;-65
2022/05/04 08:57:17;;;;;;;3.33;3.03;;;;;;;;;;5058714;28;20229;-65
2022/05/04 08:59:45;;;;;;;3.40;2.80;;;;;;;;;;5059096;28;20673;-63
2022/05/04 09:02:12;;;;;;;3.67;2.72;;;;;;;;;;5059217;28;20594;-66
2022/05/04 09:04:44;;;;;;;3.15;2.85;;;;;;;;;;5053831;28;20209;-65
2022/05/04 09:07:24;;;;;;;3.35;3.05;;;;;;;;;;5055506;28;20694;-65
2022/05/04 09:09:53;;;;;;;4.63;2.47;;;;;;;;;;5058780;28;20244;-64
2022/05/04 09:12:21;;;;;;;4.43;3.22;;;;;;;;;;5057243;28;20680;-64
2022/05/04 09:14:48;;;;;;;3.60;3.25;;;;;;;;;;5052833;28;20246;-64
2022/05/04 09:17:16;;;;;;;2.80;2.58;;;;;;;;;;5061134;28;20225;-67
2022/05/04 09:22:43;;;;;;;3.28;2.97;;;;;;;;;;5076432;28;20236;-66
2022/05/04 09:25:18;;;;;;;3.05;2.50;;;;;;;;;;5059057;28;20231;-64
2022/05/04 09:27:46;;;;;;;2.70;2.50;;;;;;;;;;5077444;28;20317;-65
2022/05/04 09:30:13;;;;;;;3.60;3.30;;;;;;;;;;5062876;28;20197;-64
2022/05/04 09:32:41;;;;;;;2.40;2.20;;;;;;;;;;5063433;28;20647;-65
2022/05/04 09:35:16;;;;;;;2.70;2.50;;;;;;;;;;5064921;28;20217;-64
2022/05/04 09:46:11;;;;;;;5.10;4.00;;;;;;;;;;5069037;28;20209;-64
2022/05/04 09:48:38;;;;;;;5.47;2.70;;;;;;;;;;5053757;28;20205;-66
2022/05/04 09:51:09;;;;;;;2.70;2.40;;;;;;;;;;5070474;28;20209;-64
2022/05/04 09:53:37;;;;;;;3.87;2.83;;;;;;;;;;5050993;28;20261;-65
2022/05/04 09:56:05;;;;;;;2.43;2.30;;;;;;;;;;5054701;28;20232;-64
2022/05/04 09:58:32;;;;;;;2.03;1.93;;;;;;;;;;5056347;28;20213;-65
2022/05/04 10:01:00;;;;;;;3.27;2.20;;;;;;;;;;5057683;28;20213;-65
2022/05/04 10:03:28;;;;;;;2.10;1.90;;;;;;;;;;5057639;28;20232;-64
2022/05/04 10:05:56;;;;;;;3.77;1.73;;;;;;;;;;5060772;28;20643;-64
2022/05/04 10:08:23;;;;;;;1.93;1.83;;;;;;;;;;5054665;28;20231;-64
2022/05/04 10:10:54;;;;;;;2.27;2.10;;;;;;;;;;5070574;28;20218;-64
2022/05/04 10:13:22;;;;;;;2.73;2.13;;;;;;;;;;5054228;28;20567;-64
2022/05/04 10:15:52;;;;;;;2.70;2.50;;;;;;;;;;5044835;28;20215;-64
2022/05/04 10:18:23;;;;;;;4.20;2.90;;;;;;;;;;5040944;28;20243;-64
2022/05/04 10:21:02;;;;;;;2.03;1.93;;;;;;;;;;5052362;28;20213;-63
2022/05/04 10:23:32;;;;;;;2.57;2.37;;;;;;;;;;5057796;28;21122;-64
2022/05/04 10:25:59;;;;;;;3.83;2.80;;;;;;;;;;5065787;28;20197;-64
2022/05/04 10:28:26;;;;;;;3.20;2.87;;;;;;;;;;5045520;28;20627;-64
2022/05/04 10:30:55;;;;;;;2.70;2.50;;;;;;;;;;5047857;28;21640;-64
2022/05/04 10:33:35;;;;;;;3.60;3.00;;;;;;;;;;5046018;28;20813;-64
2022/05/04 10:36:29;;;;;;;2.80;2.60;;;;;;;;;;5053028;28;20221;-64
2022/05/04 10:38:58;;;;;;;3.97;3.00;;;;;;;;;;5054540;28;20206;-64
2022/05/04 10:41:38;;;;;;;4.43;3.20;;;;;;;;;;5048882;28;20585;-64
2022/05/04 10:44:09;;;;;;;3.30;2.83;;;;;;;;;;5051953;28;20730;-64
2022/05/04 10:46:41;;;;;;;3.10;2.90;;;;;;;;;;5044324;28;20235;-64
2022/05/04 10:49:13;;;;;;;3.43;3.13;;;;;;;;;;5055726;28;20201;-65
2022/05/04 10:51:43;;;;;;;4.13;3.03;;;;;;;;;;5052084;28;20675;-63
2022/05/04 10:54:22;;;;;;;3.47;3.17;;;;;;;;;;5066722;28;20304;-65
2022/05/04 10:56:54;;;;;;;3.30;3.00;;;;;;;;;;5056310;28;20251;-65
2022/05/04 10:59:26;;;;;;;2.80;2.60;;;;;;;;;;5058828;28;20674;-64
2022/05/04 11:01:57;;;;;;;3.00;2.80;;;;;;;;;;5059347;28;20292;-65
2022/05/04 11:04:25;;;;;;;30.67;21.47;;;;;;;;;;5062626;28;20212;-64
2022/05/04 11:06:58;;;;;;;6.35;4.97;;;;;;;;;;5072354;28;20451;-65
2022/05/04 11:09:31;;;;;;;5.18;4.30;;;;;;;;;;5073084;28;20271;-64
2022/05/04 11:12:02;;;;;;;8.02;6.78;;;;;;;;;;5058335;28;20209;-65
2022/05/04 11:14:30;;;;;;;3.83;3.53;;;;;;;;;;5064418;28;20662;-65
2022/05/04 11:16:58;;;;;;;4.00;3.40;;;;;;;;;;5066402;28;20223;-65
2022/05/04 11:19:27;;;;;;;2.60;2.40;;;;;;;;;;5055650;28;20368;-64
2022/05/04 11:21:55;;;;;;;3.00;2.80;;;;;;;;;;5053470;28;20209;-64
2022/05/04 11:24:26;;;;;;;4.70;2.63;;;;;;;;;;5055501;28;20262;-65
2022/05/04 11:26:55;;;;;;;3.50;3.20;;;;;;;;;;5059893;28;20769;-65
2022/05/04 11:29:24;;;;;;;3.67;3.38;;;;;;;;;;5062022;28;20655;-65
2022/05/04 11:31:56;;;;;;;3.80;3.50;;;;;;;;;;5055416;28;20210;-64
2022/05/04 11:34:24;;;;;;;4.03;3.73;;;;;;;;;;5049390;28;20220;-65
2022/05/04 11:36:53;;;;;;;3.87;3.57;;;;;;;;;;5061274;28;20225;-64
2022/05/04 11:39:21;;;;;;;6.40;4.20;;;;;;;;;;5058212;28;20205;-65
2022/05/04 11:41:50;;;;;;;4.43;4.10;;;;;;;;;;5061638;28;20568;-64
2022/05/04 11:44:18;;;;;;;4.43;4.03;;;;;;;;;;5057170;28;20284;-64
2022/05/04 11:46:47;;;;;;;4.70;4.10;;;;;;;;;;5058414;28;20224;-64
2022/05/04 11:49:15;;;;;;;4.43;4.13;;;;;;;;;;5075878;28;20409;-64
2022/05/04 11:51:43;;;;;;;6.17;4.10;;;;;;;;;;5058160;28;20671;-64
2022/05/04 11:54:10;;;;;;;4.67;3.87;;;;;;;;;;5054040;28;20212;-63
2022/05/04 11:56:39;;;;;;;6.87;6.13;;;;;;;;;;5057718;28;20632;-64
2022/05/04 11:59:10;;;;;;;10.37;7.50;;;;;;;;;;5062297;28;20201;-65
2022/05/04 12:01:38;;;;;;;11.50;10.40;;;;;;;;;;5062296;28;20205;-64
2022/05/04 12:04:06;;;;;;;4.83;4.33;;;;;;;;;;5081702;28;20216;-65
2022/05/04 12:06:34;;;;;;;4.00;3.70;;;;;;;;;;5056545;28;20343;-64
2022/05/04 12:09:03;;;;;;;5.40;4.90;;;;;;;;;;5059658;28;20213;-64
2022/05/04 12:11:31;;;;;;;4.47;3.90;;;;;;;;;;5075661;28;20213;-65
2022/05/04 12:13:59;;;;;;;5.80;3.80;;;;;;;;;;5062755;28;20573;-64
2022/05/04 12:16:28;;;;;;;4.20;3.77;;;;;;;;;;5053695;28;20758;-64
2022/05/04 12:18:58;;;;;;;6.13;4.33;;;;;;;;;;5052227;28;20271;-64
2022/05/04 12:21:25;;;;;;;4.53;4.13;;;;;;;;;;5057768;28;20197;-65
2022/05/04 12:23:53;;;;;;;5.43;4.93;;;;;;;;;;5055560;28;20228;-64
2022/05/04 12:26:21;;;;;;;5.70;5.20;;;;;;;;;;5076392;28;20221;-62
2022/05/04 12:34:30;;;;;;;5.87;5.27;;;;;;;;;;5060785;28;20285;-64
2022/05/04 12:36:59;;;;;;;6.93;5.83;;;;;;;;;;5057376;28;20228;-64
2022/05/04 12:39:28;;;;;;;8.50;7.57;;;;;;;;;;5055074;28;20209;-63
2022/05/04 12:41:56;;;;;;;22.67;14.10;;;;;;;;;;5075512;28;20215;-64
2022/05/04 12:44:24;;;;;;;8.23;6.37;;;;;;;;;;5063387;28;20744;-64
2022/05/04 12:46:52;;;;;;;6.33;5.73;;;;;;;;;;5055328;28;20795;-64
2022/05/04 12:49:23;;;;;;;7.20;6.07;;;;;;;;;;5063352;28;20206;-63
2022/05/04 12:51:51;;;;;;;6.73;5.23;;;;;;;;;;5055334;28;20251;-64
2022/05/04 12:54:19;;;;;;;9.63;6.87;;;;;;;;;;5062109;28;20270;-63
2022/05/04 12:56:47;;;;;;;6.40;5.80;;;;;;;;;;5059447;28;20297;-64
2022/05/04 12:59:18;;;;;;;7.40;6.37;;;;;;;;;;5066271;28;20213;-65
2022/05/04 13:01:46;;;;;;;6.10;5.53;;;;;;;;;;5077849;28;20213;-65
2022/05/04 13:04:15;;;;;;;6.10;5.50;;;;;;;;;;5061289;28;20709;-65
2022/05/04 13:06:43;;;;;;;5.63;5.10;;;;;;;;;;5060825;28;20224;-65
2022/05/04 13:09:11;;;;;;;5.83;5.30;;;;;;;;;;5064557;28;20227;-64
2022/05/04 13:11:39;;;;;;;5.00;4.50;;;;;;;;;;5066573;28;20295;-65
2022/05/04 13:14:07;;;;;;;5.27;4.77;;;;;;;;;;5083401;28;20561;-66
2022/05/04 13:16:34;;;;;;;4.60;4.20;;;;;;;;;;5054513;28;20271;-64
2022/05/04 13:19:04;;;;;;;4.30;3.90;;;;;;;;;;5055822;28;20205;-64
2022/05/04 13:21:31;;;;;;;4.20;3.70;;;;;;;;;;5054757;28;20205;-64
2022/05/04 13:24:01;;;;;;;4.07;3.67;;;;;;;;;;5065344;28;20224;-65
2022/05/04 13:26:28;;;;;;;3.33;3.05;;;;;;;;;;5071485;28;20217;-65
2022/05/04 13:28:56;;;;;;;3.30;2.97;;;;;;;;;;5067088;28;20416;-64
2022/05/04 13:31:28;;;;;;;3.15;2.85;;;;;;;;;;5058479;28;20205;-64
2022/05/04 13:33:56;;;;;;;4.03;3.72;;;;;;;;;;5060698;28;20213;-65
2022/05/04 13:36:25;;;;;;;4.45;3.22;;;;;;;;;;5061379;28;20225;-65
2022/05/04 13:38:52;;;;;;;4.88;3.75;;;;;;;;;;5056810;28;20241;-65
2022/05/04 13:41:20;;;;;;;3.28;2.72;;;;;;;;;;5055055;28;21191;-64
2022/05/04 13:43:48;;;;;;;2.90;2.70;;;;;;;;;;5044781;28;20673;-65
2022/05/04 13:46:17;;;;;;;3.10;2.10;;;;;;;;;;5079302;28;20624;-64
2022/05/04 13:48:45;;;;;;;2.40;2.20;;;;;;;;;;5061029;28;20205;-66
2022/05/04 13:53:59;;;;;;;2.50;2.30;;;;;;;;;;5081106;28;20685;-64
2022/05/04 13:56:26;;;;;;;2.20;2.10;;;;;;;;;;5056951;28;20233;-64
2022/05/04 13:58:55;;;;;;;2.40;2.20;;;;;;;;;;5057545;28;20201;-65
2022/05/04 14:01:22;;;;;;;2.30;2.10;;;;;;;;;;5069422;28;20218;-65
2022/05/04 14:03:50;;;;;;;2.63;2.38;;;;;;;;;;5062778;28;20233;-66
2022/05/04 14:06:18;;;;;;;2.80;2.03;;;;;;;;;;5063327;28;20205;-66
2022/05/04 14:08:45;;;;;;;3.17;2.03;;;;;;;;;;5066657;28;20228;-63
2022/05/04 14:11:13;;;;;;;3.17;2.00;;;;;;;;;;5066387;28;20196;-65
2022/05/04 14:13:40;;;;;;;2.03;1.92;;;;;;;;;;5054886;28;20201;-64
2022/05/04 14:16:08;;;;;;;3.65;2.58;;;;;;;;;;5082615;28;20201;-63
2022/05/04 14:18:36;;;;;;;2.53;2.42;;;;;;;;;;5062056;28;21591;-65
2022/05/04 14:21:04;;;;;;;2.40;2.20;;;;;;;;;;5056225;28;20211;-65
2022/05/04 14:23:31;;;;;;;2.20;2.00;;;;;;;;;;5061027;28;20286;-65
2022/05/04 14:25:59;;;;;;;2.35;1.92;;;;;;;;;;5081623;28;20677;-65
2022/05/04 14:28:29;;;;;;;1.95;1.85;;;;;;;;;;5055067;28;20205;-63
2022/05/04 14:31:01;;;;;;;1.92;1.80;;;;;;;;;;5050011;28;20607;-63
2022/05/04 14:33:29;;;;;;;2.67;2.10;;;;;;;;;;5067298;28;20219;-64
2022/05/04 14:35:56;;;;;;;2.30;2.10;;;;;;;;;;5057483;28;20238;-65
2022/05/04 14:38:24;;;;;;;2.53;2.10;;;;;;;;;;5052892;28;20224;-63
2022/05/04 14:40:51;;;;;;;2.20;2.03;;;;;;;;;;5055870;28;20697;-65
2022/05/04 14:43:25;;;;;;;2.97;1.80;;;;;;;;;;5059166;28;20310;-65
2022/05/04 14:45:53;;;;;;;2.80;1.88;;;;;;;;;;5067750;28;20292;-65
2022/05/04 14:48:21;;;;;;;3.00;2.10;;;;;;;;;;5065433;28;20623;-64
2022/05/04 14:50:48;;;;;;;2.28;2.17;;;;;;;;;;5064031;28;20270;-64
2022/05/04 14:53:15;;;;;;;2.55;2.00;;;;;;;;;;5064973;28;20201;-64
2022/05/04 14:55:43;;;;;;;3.75;3.40;;;;;;;;;;5061324;28;20666;-64
2022/05/04 14:58:10;;;;;;;1.60;1.50;;;;;;;;;;5067174;28;20720;-64
2022/05/04 15:00:38;;;;;;;1.80;1.70;;;;;;;;;;5067447;28;20201;-65
2022/05/04 15:05:52;;;;;;;2.53;2.05;;;;;;;;;;5073102;28;20223;-65
2022/05/04 15:08:19;;;;;;;3.00;2.13;;;;;;;;;;5064767;28;20241;-64
2022/05/04 15:10:47;;;;;;;2.53;2.08;;;;;;;;;;5056788;28;20198;-65
2022/05/04 15:13:14;;;;;;;2.88;2.60;;;;;;;;;;5056857;28;20216;-65
2022/05/04 15:15:42;;;;;;;1.75;1.65;;;;;;;;;;5060339;28;20205;-65
2022/05/04 15:18:09;;;;;;;1.70;1.60;;;;;;;;;;5074525;28;20414;-65
2022/05/04 15:20:36;;;;;;;1.95;1.75;;;;;;;;;;5070673;28;20622;-65
2022/05/04 15:23:04;;;;;;;2.85;2.00;;;;;;;;;;5060278;28;20586;-65
2022/05/04 15:25:31;;;;;;;3.92;2.20;;;;;;;;;;5051193;28;20243;-64
2022/05/04 15:27:59;;;;;;;2.40;1.80;;;;;;;;;;5053492;28;20217;-65
2022/05/04 15:30:27;;;;;;;1.63;1.52;;;;;;;;;;5051860;28;20283;-65
2022/05/04 15:32:54;;;;;;;2.33;1.75;;;;;;;;;;5069696;28;20255;-68
2022/05/04 15:35:22;;;;;;;1.80;1.70;;;;;;;;;;5057840;28;21273;-64
2022/05/04 15:37:49;;;;;;;3.03;1.92;;;;;;;;;;5051294;28;20221;-65
2022/05/04 15:40:17;;;;;;;1.90;1.80;;;;;;;;;;5048439;28;20208;-64